This is the latest recevied weather packets stored in our database for station/object HB9CYX-13. If no packets are shown the sender has not sent any weather packets the latest 10 day(s).
| Time | Temp. | Humidity | Pressure | Rain* | Wind** | Luminosity | Snow |
|---|---|---|---|---|---|---|---|
| 1777816893 | 23.33° C | 35% | 1013.5 hPa | 0 mm | - | - | - |
| 1777816155 | 24.44° C | 33% | 1013.2 hPa | 0 mm | - | - | - |
| 1777815418 | 25.56° C | 34% | 1013.1 hPa | 0 mm | - | - | - |
| 1777814681 | 25.56° C | 33% | 1013.1 hPa | 0 mm | - | - | - |
| 1777813944 | 27.78° C | 29% | 1012.7 hPa | 0 mm | - | - | - |
| 1777813207 | 27.78° C | 28% | 1012.9 hPa | 0 mm | - | - | - |
| 1777812469 | 26.11° C | 30% | 1013.4 hPa | 0 mm | - | - | - |
| 1777811732 | 25.56° C | 32% | 1013.5 hPa | 0 mm | - | - | - |
| 1777810995 | 26.11° C | 34% | 1013.4 hPa | 0 mm | - | - | - |
| 1777810257 | 25° C | 37% | 1013.7 hPa | 0 mm | - | - | - |
| 1777809520 | 23.33° C | 39% | 1014.1 hPa | 0 mm | - | - | - |
| 1777808783 | 23.89° C | 37% | 1014.2 hPa | 0 mm | - | - | - |
| 1777808046 | 24.44° C | 35% | 1014.2 hPa | 0 mm | - | - | - |
| 1777807308 | 25.56° C | 36% | 1014.1 hPa | 0 mm | - | - | - |
| 1777806571 | 25° C | 38% | 1014.4 hPa | 0 mm | - | - | - |
| 1777805834 | 24.44° C | 36% | 1014.5 hPa | 0 mm | - | - | - |
| 1777805097 | 25° C | 39% | 1014.3 hPa | 0 mm | - | - | - |
| 1777804359 | 22.22° C | 43% | 1014.8 hPa | 0 mm | - | - | - |
| 1777803622 | 21.11° C | 45% | 1015.3 hPa | 0 mm | - | - | - |
| 1777802885 | 20.56° C | 45% | 1015.8 hPa | 0 mm | - | - | - |
| 1777802148 | 20.56° C | 46% | 1015.9 hPa | 0 mm | - | - | - |
| 1777800553 | 20.56° C | 45% | 1016.3 hPa | 0 mm | - | - | - |
| 1777799817 | 21.11° C | 45% | 1016.2 hPa | 0 mm | - | - | - |
| 1777799080 | 20.56° C | 43% | 1016.5 hPa | 0 mm | - | - | - |
| 1777798343 | 22.78° C | 42% | 1016.1 hPa | 0 mm | - | - | - |
* Rain latest hour (hover to see other rain measurements)
** Current wind speed in m/s (hover to see current wind gust speed)